Marathon Airport
CYSP : rendu visible

Aérodrome :











RETROUVEZ-NOUS SUR...

 
LOGIN :

S'inscrire | Disclaimer

   EN    FR    IT 

 









Légende :    VFR   VFR Marginal   IFR   IFR Intensif   IFR Très Intensif
Visi : 
Plafond : 
>= 8 km
>= 3000ft
5 à 8 km
1000 à 3000 ft
1500m à 5 km
500 à 1000 ft
800 à 1500m
200 à 500 ft
< 800m
< 200 ft
Symboles :   Orages  Brouillard  Fortes neiges  Fortes précipitations  Vent > 20 kt






- Altitude de l'aérodrome : 1035 ft
- Code IATA : YSP


CYSP - Marathon

DERNIER METAR :
  • 221600Z VRB06G15KT 15SM FEW150 SCT210 01/M02 A2984 RMK AC2CI1 SLP122

METARs EXPIRÉS :
  • 221500Z 25006KT 210V310 15SM FEW160 SCT210 01/M03 A2985 RMK AC1CI2 SLP126
  • 221400Z 27008KT 220V290 15SM FEW160 SCT210 M00/M03 A2985 RMK AC2CI1 SLP127

TAF TAF CYSP
Valide du 22 à 15h jusqu'au 22 à 22h UTC


221439Z 2215/2222 27008KT P6SM FEW160
BECMG 2216/2218 21010G20KT RMK NXT FCST BY 222000Z



MET'MAP, la Météo Aéronautique d'un coup d'oeil ! - Copyright ORBIFLY Décembre 2007 - Disclaimer

ORBIFLY MET'MAP TEAM :

Programmation & Développement : Alexandra Zaïnal
Sur une idée originale de : Baudouin d'Aumeries
Assistance à la programmation : Marc-Olivier Méhu
Soutien technique & logistique : Manuel Goepfert

Contact : metmap@orbifly.com




SOURCES & CREDITS :

   NOAA       Earth
Advisory